Skip Navigation Links
NOAA logo - Click to go to the NOAA homepage
NOAA's National Weather Service
Alaska Aviation Weather Unit
  NWS logo - Click to go to the NWS homepage
Left Navbar Graphic     09 AKDT = 17 GMT

   
NOAA is celebrating 200 years of science, service, and stewardship. Visit the NOAA 200th celebration Web site to learn more.
USA.gov is the U.S. Government's official Web portal to all Federal, state and local government Web resources and services.
Facebook
NWS on Facebook

Important Change Regarding the AAWU Web Presence

 

Over the last several months, the AAWU has been working to navigate its webpages to a nationally supported server. Security, as well as other needs, have necessitated the change.  In the process, we have made an effort to enhance the functionality of our website, as well as some of our products. As of June 20, 2017, aawu.arh.noaa.gov will be discontinued. The new AAWU web address is weather.gov/aawu. It is now live and will run in-parallel with the old site until it is discontinued. Please send any feedback or questions regarding the new webpages to nws.ar.aawu.webauthors@noaa.gov.  Thank you for your patience during this time of transition.
AAWU Home :: Display TAF Add Bookmark
METAR PAWI 271153Z AUTO 11011KT 10SM OVC065 01/M01 A2993 RMK AO2
 SLP138 T00061011 10011 21006 53006 TSNO=

PAWI 271253Z AUTO 11010KT 10SM OVC065 00/M01 A2994 RMK AO2 SLP140
     T00001011 TSNO=

METAR PAWI 271353Z AUTO 13007KT 10SM OVC070 00/M01 A2995 RMK AO2 SLP142
     T00001011 TSNO=

METAR PAWI 271453Z AUTO 12008KT 10SM FEW070 M01/M02 A2996 RMK AO2
 SLP145 T10061022 53007 TSNO=

METAR PAWI 271553Z AUTO 12008KT 10SM CLR 00/M02 A2996 RMK AO2 SLP147
     T00001022 TSNO=

METAR PAWI 271653Z AUTO 13006KT 10SM CLR 01/M02 A2998 RMK AO2 SLP152
 T00061017 TSNO=


NOAA's National Weather Service
Alaska Aviation Weather Unit
6930 Sand Lake Road
Anchorage, AK 99502-1845
Disclaimer
Credits
Glossary
Privacy Policy
About Us
Career Opportunities
Contact AAWU Internet Services Site last modified: April, 17th 2012